createdAt,value
2022-11-15T00:04:55.827Z,68.10
2022-11-15T00:09:57.447Z,68.10
2022-11-15T00:14:59.003Z,68.80
2022-11-15T00:20:00.691Z,68.00
2022-11-15T00:25:02.483Z,68.10
2022-11-15T00:30:04.227Z,68.20
2022-11-15T00:35:06.137Z,68.10
2022-11-15T00:40:08.555Z,69.30
2022-11-15T00:45:10.531Z,68.30
2022-11-15T00:50:15.129Z,68.30
2022-11-15T00:55:18.044Z,68.50
2022-11-15T01:00:19.935Z,68.40
2022-11-15T01:05:21.740Z,68.40
2022-11-15T01:10:23.990Z,68.30
2022-11-15T01:15:25.660Z,68.50
2022-11-15T01:20:27.213Z,68.40
2022-11-15T01:25:29.005Z,68.30
2022-11-15T01:30:30.610Z,68.10
2022-11-15T01:35:32.334Z,68.10
2022-11-15T01:40:34.090Z,68.20
2022-11-15T01:45:35.756Z,68.30
2022-11-15T01:50:37.538Z,68.60
2022-11-15T01:55:39.299Z,68.50
2022-11-15T02:06:01.237Z,68.40
2022-11-15T02:11:05.153Z,68.50
2022-11-15T02:16:09.553Z,68.50
2022-11-15T02:21:15.773Z,68.50
2022-11-15T02:26:37.967Z,68.70
2022-11-15T02:32:04.335Z,68.70
2022-11-15T02:37:18.559Z,68.70
2022-11-15T02:42:55.454Z,68.70
2022-11-15T02:47:59.000Z,68.90
2022-11-15T02:53:00.600Z,68.90
2022-11-15T02:58:20.870Z,68.80
2022-11-15T03:03:30.218Z,69.00
2022-11-15T03:08:56.651Z,68.90
2022-11-15T03:14:17.146Z,68.80
2022-11-15T03:19:39.105Z,68.70
2022-11-15T03:24:42.075Z,68.70
2022-11-15T03:29:47.058Z,68.70
2022-11-15T03:34:51.063Z,68.80
2022-11-15T03:39:52.623Z,68.80
2022-11-15T03:44:57.940Z,68.80
2022-11-15T03:50:02.116Z,68.90
2022-11-15T03:55:04.705Z,69.00
2022-11-15T04:00:06.659Z,69.10
2022-11-15T04:05:08.477Z,69.10
2022-11-15T04:10:11.405Z,69.20
2022-11-15T04:15:14.196Z,69.20
2022-11-15T04:20:41.748Z,69.30
2022-11-15T04:25:44.690Z,69.40
2022-11-15T04:30:46.590Z,69.40
2022-11-15T04:36:08.141Z,69.50
2022-11-15T04:41:09.678Z,69.60
2022-11-15T04:46:11.312Z,69.60
2022-11-15T04:51:13.104Z,69.80
2022-11-15T04:56:14.718Z,70.00
2022-11-15T05:01:16.866Z,69.90
2022-11-15T05:06:18.605Z,69.70
2022-11-15T05:11:21.405Z,69.60
2022-11-15T05:16:23.082Z,69.60
2022-11-15T05:21:24.742Z,69.70
2022-11-15T05:26:26.811Z,69.70
2022-11-15T05:31:28.774Z,69.80
2022-11-15T05:36:32.793Z,69.90
2022-11-15T05:41:36.735Z,70.10
2022-11-15T05:46:38.513Z,70.10
2022-11-15T05:51:40.824Z,70.00
2022-11-15T05:56:42.559Z,69.80
2022-11-15T06:01:44.668Z,69.70
2022-11-15T06:06:46.644Z,69.60
2022-11-15T06:11:49.156Z,69.60
2022-11-15T06:16:50.735Z,69.50
2022-11-15T06:21:52.369Z,69.70
2022-11-15T06:26:56.464Z,69.80
2022-11-15T06:31:58.160Z,70.00
2022-11-15T06:36:59.934Z,70.40
2022-11-15T06:42:01.642Z,70.90
2022-11-15T06:47:03.416Z,71.70
2022-11-15T06:52:05.278Z,71.60
2022-11-15T06:57:07.058Z,71.80
2022-11-15T07:02:17.630Z,71.80
2022-11-15T07:07:19.487Z,72.00
2022-11-15T07:12:21.703Z,74.20
2022-11-15T07:17:23.462Z,74.80
2022-11-15T07:22:25.688Z,73.80
2022-11-15T07:27:27.839Z,73.40
2022-11-15T07:32:32.762Z,74.30
2022-11-15T07:37:34.679Z,73.80
2022-11-15T07:42:54.859Z,73.90
2022-11-15T07:47:57.444Z,73.90
2022-11-15T07:53:00.375Z,73.90
2022-11-15T07:58:05.890Z,73.70
2022-11-15T08:03:11.598Z,73.70
2022-11-15T08:08:13.231Z,73.60
2022-11-15T08:13:15.078Z,73.90
2022-11-15T08:18:17.692Z,73.50
2022-11-15T08:23:19.473Z,73.90
2022-11-15T08:28:21.964Z,75.00
2022-11-15T08:33:23.579Z,75.70
2022-11-15T08:38:25.803Z,75.30
2022-11-15T08:43:27.616Z,75.50
2022-11-15T08:48:31.649Z,75.60
2022-11-15T08:53:34.764Z,75.50
2022-11-15T08:58:36.911Z,75.50
2022-11-15T09:03:40.640Z,75.50
2022-11-15T09:08:49.541Z,75.50
2022-11-15T09:13:51.256Z,75.50
2022-11-15T09:18:53.653Z,75.40
2022-11-15T09:23:55.611Z,75.30
2022-11-15T09:28:57.389Z,75.20
2022-11-15T09:33:59.011Z,75.40
2022-11-15T09:39:01.086Z,75.20
2022-11-15T09:44:14.916Z,75.20
2022-11-15T09:49:17.074Z,75.10
2022-11-15T09:54:52.322Z,75.10
2022-11-15T10:00:38.990Z,75.10
2022-11-15T10:05:30.541Z,75.00
2022-11-15T10:11:00.584Z,75.00
2022-11-15T10:16:18.560Z,75.00
2022-11-15T10:21:26.581Z,75.00
2022-11-15T10:26:29.223Z,74.80
2022-11-15T10:31:30.990Z,74.80
2022-11-15T10:36:33.019Z,75.70
2022-11-15T10:41:41.919Z,74.70
2022-11-15T10:46:47.626Z,74.70
2022-11-15T10:51:51.872Z,74.50
2022-11-15T10:56:55.361Z,74.40
2022-11-15T11:01:57.186Z,74.50
2022-11-15T11:06:59.672Z,74.50
2022-11-15T11:12:02.254Z,74.40
2022-11-15T11:17:06.919Z,74.30
2022-11-15T11:22:20.514Z,74.20
2022-11-15T11:27:27.678Z,74.30
2022-11-15T11:32:43.936Z,74.20
2022-11-15T11:38:08.862Z,74.20
2022-11-15T11:43:16.790Z,74.30
2022-11-15T11:48:27.912Z,74.20
2022-11-15T11:53:37.208Z,74.20
2022-11-15T11:58:40.675Z,74.10
2022-11-15T12:03:44.927Z,74.20
2022-11-15T12:09:04.950Z,74.20
2022-11-15T12:14:11.648Z,75.10
2022-11-15T12:19:13.312Z,74.20
2022-11-15T12:24:22.783Z,74.10
2022-11-15T12:29:30.195Z,74.10
2022-11-15T12:34:43.099Z,74.10
2022-11-15T12:40:07.971Z,74.10
2022-11-15T12:45:29.789Z,74.00
2022-11-15T12:50:56.811Z,74.00
2022-11-15T12:56:04.500Z,74.10
2022-11-15T13:01:07.895Z,74.10
2022-11-15T13:06:10.092Z,74.10
2022-11-15T13:11:30.529Z,74.10
2022-11-15T13:16:32.175Z,74.10
2022-11-15T13:21:52.769Z,74.10
2022-11-15T13:26:54.378Z,74.10
2022-11-15T13:31:56.762Z,74.00
2022-11-15T13:36:58.748Z,74.00
2022-11-15T13:42:00.960Z,74.10
2022-11-15T13:47:04.029Z,74.00
2022-11-15T13:52:07.120Z,74.00
2022-11-15T13:57:38.067Z,74.10
2022-11-15T14:02:40.193Z,74.00
2022-11-15T14:07:53.386Z,74.10
2022-11-15T14:12:55.425Z,74.00
2022-11-15T14:17:57.237Z,74.00
2022-11-15T14:23:00.439Z,73.90
2022-11-15T14:28:09.622Z,74.00
2022-11-15T14:33:19.385Z,74.10
2022-11-15T14:38:21.023Z,74.10
2022-11-15T14:43:22.554Z,74.00
2022-11-15T14:48:24.312Z,74.10
2022-11-15T14:53:25.959Z,74.00
2022-11-15T14:58:27.693Z,74.00
2022-11-15T15:03:29.469Z,74.00
2022-11-15T15:08:31.719Z,74.00
2022-11-15T15:13:33.756Z,74.00
2022-11-15T15:18:35.529Z,74.10
2022-11-15T15:23:37.178Z,74.00
2022-11-15T15:28:40.846Z,73.90
2022-11-15T15:33:42.798Z,74.00
2022-11-15T15:38:47.782Z,73.90
2022-11-15T15:43:49.604Z,73.90
2022-11-15T15:48:51.511Z,73.90
2022-11-15T15:53:58.007Z,73.90
2022-11-15T15:58:59.667Z,73.90
2022-11-15T16:04:01.380Z,73.80
2022-11-15T16:09:19.474Z,73.80
2022-11-15T16:14:21.471Z,73.80
2022-11-15T16:19:23.087Z,73.80
2022-11-15T16:24:24.920Z,73.80
2022-11-15T16:29:27.040Z,73.80
2022-11-15T16:34:31.158Z,73.70
2022-11-15T16:39:34.640Z,73.70
2022-11-15T16:44:36.392Z,73.50
2022-11-15T16:49:38.082Z,73.50
2022-11-15T16:54:39.921Z,73.20
2022-11-15T16:59:41.604Z,72.70
2022-11-15T17:04:43.211Z,72.20
2022-11-15T17:09:44.953Z,71.80
2022-11-15T17:14:47.098Z,71.40
2022-11-15T17:19:48.761Z,71.00
2022-11-15T17:24:50.463Z,70.80
2022-11-15T17:29:52.155Z,70.60
2022-11-15T17:34:53.817Z,70.50
2022-11-15T17:39:55.552Z,70.70
2022-11-15T17:44:57.282Z,70.60
2022-11-15T17:49:59.073Z,74.00
2022-11-15T17:55:00.859Z,75.30
2022-11-15T18:00:02.704Z,74.90
2022-11-15T18:05:04.479Z,73.10
2022-11-15T18:10:06.240Z,72.90
2022-11-15T18:15:08.028Z,72.60
2022-11-15T18:20:10.095Z,72.80
2022-11-15T18:25:12.301Z,72.80
2022-11-15T18:30:14.101Z,72.60
2022-11-15T18:35:15.855Z,72.20
2022-11-15T18:40:17.890Z,72.00
2022-11-15T18:45:24.010Z,71.60
2022-11-15T18:50:25.958Z,71.50
2022-11-15T18:55:27.788Z,71.40
2022-11-15T19:00:29.459Z,71.30
2022-11-15T19:05:31.288Z,71.20
2022-11-15T19:10:34.159Z,71.10
2022-11-15T19:15:35.771Z,71.00
2022-11-15T19:20:37.426Z,70.90
2022-11-15T19:25:39.250Z,70.80
2022-11-15T19:30:40.970Z,70.70
2022-11-15T19:35:42.600Z,70.70
2022-11-15T19:40:44.478Z,70.60
2022-11-15T19:45:52.333Z,70.80
2022-11-15T19:50:54.107Z,71.00
2022-11-15T19:55:56.578Z,70.90
2022-11-15T20:01:03.334Z,70.80
2022-11-15T20:06:06.531Z,70.90
2022-11-15T20:11:08.450Z,71.10
2022-11-15T20:16:14.702Z,71.20
2022-11-15T20:21:16.728Z,71.00
2022-11-15T20:26:18.906Z,70.90
2022-11-15T20:31:21.829Z,71.10
2022-11-15T20:36:23.732Z,71.20
2022-11-15T20:41:25.767Z,71.20
2022-11-15T20:46:27.400Z,71.00
2022-11-15T20:51:29.027Z,71.00
2022-11-15T20:56:30.748Z,71.90
2022-11-15T21:01:32.988Z,71.20
2022-11-15T21:06:34.832Z,71.30
2022-11-15T21:11:55.654Z,71.50
2022-11-15T21:16:57.636Z,71.60
2022-11-15T21:21:59.763Z,72.00
2022-11-15T21:27:01.480Z,72.10
2022-11-15T21:32:07.014Z,72.30
2022-11-15T21:37:10.558Z,72.40
2022-11-15T21:42:12.254Z,72.60
2022-11-15T21:47:13.960Z,72.70
2022-11-15T21:52:15.593Z,72.80
2022-11-15T21:57:18.933Z,73.00
2022-11-15T22:02:20.646Z,73.00
2022-11-15T22:07:22.324Z,73.20
2022-11-15T22:12:29.390Z,73.20
2022-11-15T22:17:49.987Z,73.40
2022-11-15T22:22:51.669Z,73.40
2022-11-15T22:27:53.367Z,73.60
2022-11-15T22:32:55.081Z,73.70
2022-11-15T22:37:56.825Z,73.70
2022-11-15T22:42:58.633Z,73.80
2022-11-15T22:48:00.571Z,73.80
2022-11-15T22:53:02.179Z,73.90
2022-11-15T22:58:03.983Z,74.00
2022-11-15T23:03:05.682Z,74.00
2022-11-15T23:08:07.368Z,74.00
2022-11-15T23:13:17.898Z,74.10
2022-11-15T23:18:19.579Z,74.20
2022-11-15T23:23:21.267Z,74.30
2022-11-15T23:28:22.914Z,74.30
2022-11-15T23:33:43.175Z,74.30
2022-11-15T23:38:44.792Z,74.40
2022-11-15T23:43:46.836Z,74.50
2022-11-15T23:48:48.533Z,74.40
2022-11-15T23:53:50.241Z,74.50
2022-11-15T23:58:52.017Z,74.50
